Time;durP1;ratioP1;P1;durP2;ratioP2;P2;SDS_P1;SDS_P2;PMS_P1;PMS_P2;Temp;Humidity;BMP_temperature;BMP_pressure;BME280_temperature;BME280_humidity;BME280_pressure;Samples;Min_cycle;Max_cycle;Signal;HPM_P1;HPM_P2
2023/03/29 00:02:08;;;;;;;6.85;4.30;;;12.80;65.60;;;;;;6188779;23;20426;-86
2023/03/29 00:04:35;;;;;;;5.68;4.22;;;;;;;;;;6215889;23;20144;-87
2023/03/29 00:07:03;;;;;;;6.65;4.10;;;;;;;;;;6215329;23;20007;-87
2023/03/29 00:09:31;;;;;;;5.70;3.92;;;12.60;66.00;;;;;;6216119;23;20510;-89
2023/03/29 00:11:58;;;;;;;5.88;3.58;;;12.60;66.40;;;;;;6189540;23;20012;-89
2023/03/29 00:14:25;;;;;;;4.95;3.13;;;12.60;66.30;;;;;;6188802;23;20397;-86
2023/03/29 00:16:51;;;;;;;8.25;4.13;;;12.60;66.90;;;;;;6188677;23;20007;-84
2023/03/29 00:19:17;;;;;;;4.82;3.47;;;12.50;67.00;;;;;;6215261;23;19997;-84
2023/03/29 00:21:43;;;;;;;4.72;3.45;;;12.50;67.30;;;;;;6215680;23;20056;-84
2023/03/29 00:24:08;;;;;;;4.45;3.20;;;12.50;67.10;;;;;;6215127;23;20007;-85
2023/03/29 00:26:34;;;;;;;4.70;3.47;;;12.40;67.60;;;;;;6213360;23;20019;-83
2023/03/29 00:29:00;;;;;;;5.43;3.35;;;12.40;67.40;;;;;;6215124;23;20020;-85
2023/03/29 00:31:26;;;;;;;7.07;3.75;;;12.40;67.40;;;;;;6215116;23;20486;-85
2023/03/29 00:33:52;;;;;;;5.47;3.60;;;12.40;67.20;;;;;;6214621;23;20024;-84
2023/03/29 00:36:17;;;;;;;4.45;3.10;;;12.50;67.40;;;;;;6214982;23;20034;-83
2023/03/29 00:38:43;;;;;;;4.03;2.95;;;12.50;67.20;;;;;;6215100;23;20043;-84
2023/03/29 00:41:10;;;;;;;4.55;2.90;;;12.60;67.70;;;;;;6213206;23;20008;-84
2023/03/29 00:43:52;;;;;;;5.47;2.53;;;;;;;;;;6213234;23;20095;-84
2023/03/29 00:46:18;;;;;;;6.97;3.30;;;;;;;;;;6188646;23;20009;-84
2023/03/29 00:48:45;;;;;;;5.03;2.58;;;12.70;66.90;;;;;;6214812;23;20005;-83
2023/03/29 00:51:13;;;;;;;5.28;3.47;;;12.70;67.20;;;;;;6188690;23;20028;-84
2023/03/29 00:53:47;;;;;;;5.43;3.20;;;12.70;66.60;;;;;;6214577;23;20069;-86
2023/03/29 00:56:23;;;;;;;4.20;3.13;;;12.70;66.60;;;;;;6214573;23;20407;-84
2023/03/29 00:59:03;;;;;;;8.18;2.97;;;12.70;66.90;;;;;;6188499;23;20009;-84
2023/03/29 01:01:53;;;;;;;6.45;2.60;;;12.70;66.40;;;;;;6188245;23;20014;-84
2023/03/29 01:04:36;;;;;;;6.57;3.10;;;12.70;66.60;;;;;;6188001;23;20004;-85
2023/03/29 01:07:06;;;;;;;4.72;3.13;;;12.70;66.40;;;;;;6188393;23;20251;-84
2023/03/29 01:09:34;;;;;;;4.97;2.65;;;12.70;66.00;;;;;;6188515;23;20004;-84
2023/03/29 01:12:07;;;;;;;5.07;3.10;;;12.80;66.30;;;;;;6159811;23;20447;-85
2023/03/29 01:14:38;;;;;;;5.57;3.08;;;12.70;66.20;;;;;;6187064;23;20005;-85
2023/03/29 01:17:05;;;;;;;4.07;2.88;;;12.70;66.30;;;;;;6187254;23;20005;-85
2023/03/29 01:19:39;;;;;;;6.35;2.92;;;12.60;65.80;;;;;;6184990;23;20009;-85
2023/03/29 01:22:43;;;;;;;5.30;3.40;;;12.60;65.90;;;;;;6159910;23;20012;-84
2023/03/29 01:25:33;;;;;;;5.28;3.55;;;12.40;66.40;;;;;;6120300;23;20036;-84
2023/03/29 01:28:05;;;;;;;7.43;3.50;;;12.40;66.40;;;;;;6185684;23;20009;-84
2023/03/29 01:30:48;;;;;;;7.13;3.17;;;12.30;66.30;;;;;;6186931;23;20412;-84
2023/03/29 01:33:24;;;;;;;6.32;3.05;;;12.30;66.80;;;;;;6186431;23;20060;-85
2023/03/29 01:36:23;;;;;;;5.35;2.88;;;12.30;66.80;;;;;;6186709;23;20080;-84
2023/03/29 01:38:58;;;;;;;4.35;3.17;;;12.30;66.70;;;;;;6185049;23;20084;-85
2023/03/29 01:41:32;;;;;;;6.60;3.50;;;12.40;66.60;;;;;;6160251;23;20024;-86
2023/03/29 01:44:06;;;;;;;5.18;3.17;;;12.40;66.40;;;;;;6159959;23;20036;-84
2023/03/29 01:46:53;;;;;;;5.80;3.00;;;12.40;66.80;;;;;;6160180;23;20143;-84
2023/03/29 01:49:29;;;;;;;3.78;2.80;;;12.40;66.10;;;;;;6186193;23;20008;-86
2023/03/29 01:52:03;;;;;;;6.85;2.85;;;12.40;65.70;;;;;;6160354;23;20009;-87
2023/03/29 01:55:02;;;;;;;5.68;3.83;;;12.40;65.60;;;;;;6160025;23;20032;-87
2023/03/29 01:57:28;;;;;;;4.18;2.92;;;;;;;;;;6160693;23;20013;-86
2023/03/29 01:59:56;;;;;;;4.65;2.90;;;12.30;65.60;;;;;;6186601;23;20054;-86
2023/03/29 02:02:25;;;;;;;4.35;3.15;;;12.20;65.60;;;;;;6159841;23;20008;-86
2023/03/29 02:04:53;;;;;;;3.97;3.47;;;12.20;65.60;;;;;;6186978;23;20381;-85
2023/03/29 02:07:36;;;;;;;5.85;3.70;;;12.20;65.70;;;;;;6159867;23;20351;-86
2023/03/29 02:10:02;;;;;;;4.80;3.45;;;;;;;;;;6164809;23;20454;-86
2023/03/29 02:12:28;;;;;;;5.50;3.28;;;;;;;;;;6216650;23;20000;-86
2023/03/29 02:14:56;;;;;;;4.93;3.58;;;12.10;65.60;;;;;;6217202;23;20007;-86
2023/03/29 02:17:24;;;;;;;4.72;3.33;;;12.00;65.50;;;;;;6189989;23;20370;-87
2023/03/29 02:20:16;;;;;;;6.13;3.60;;;12.00;65.70;;;;;;6216063;23;20435;-83
2023/03/29 02:23:20;;;;;;;4.35;3.30;;;11.90;66.40;;;;;;6189218;23;20015;-83
2023/03/29 02:25:49;;;;;;;5.40;3.88;;;11.90;66.70;;;;;;6208982;23;20016;-83
2023/03/29 02:28:15;;;;;;;6.78;3.83;;;11.80;67.00;;;;;;6215174;23;20005;-84
2023/03/29 02:31:13;;;;;;;5.22;3.53;;;11.80;66.70;;;;;;6216134;23;19997;-84
2023/03/29 02:33:52;;;;;;;4.80;3.45;;;11.80;67.30;;;;;;6189676;23;20383;-85
2023/03/29 02:36:23;;;;;;;6.68;4.05;;;11.90;67.30;;;;;;6215996;23;19996;-85
2023/03/29 02:38:51;;;;;;;4.63;3.58;;;11.90;67.20;;;;;;6215769;23;20005;-84
2023/03/29 02:41:17;;;;;;;4.55;3.13;;;11.90;67.30;;;;;;6189309;23;20008;-84
2023/03/29 02:43:45;;;;;;;4.75;3.42;;;11.90;67.10;;;;;;6216063;23;20076;-84
2023/03/29 02:46:13;;;;;;;4.32;3.15;;;11.90;67.20;;;;;;6214552;23;20423;-83
2023/03/29 02:48:40;;;;;;;4.20;3.40;;;11.80;67.60;;;;;;6188518;23;20013;-84
2023/03/29 02:51:18;;;;;;;8.27;4.18;;;11.80;67.60;;;;;;6215578;23;20004;-85
2023/03/29 02:54:17;;;;;;;4.38;3.40;;;11.80;67.70;;;;;;6215668;23;20004;-85
2023/03/29 02:56:48;;;;;;;5.00;3.88;;;11.80;68.20;;;;;;6215714;23;20001;-85
2023/03/29 02:59:18;;;;;;;4.40;3.28;;;11.80;68.30;;;;;;6215765;23;20443;-86
2023/03/29 03:01:43;;;;;;;3.55;3.05;;;11.80;68.10;;;;;;6189534;23;20019;-85
2023/03/29 03:04:10;;;;;;;4.40;3.63;;;11.70;67.70;;;;;;6214849;23;20001;-85
2023/03/29 03:06:37;;;;;;;6.80;4.18;;;11.60;67.60;;;;;;6188903;23;20015;-84
2023/03/29 03:09:04;;;;;;;5.72;3.67;;;11.60;68.20;;;;;;6215645;23;20001;-84
2023/03/29 03:11:31;;;;;;;6.30;4.65;;;11.50;68.30;;;;;;6215862;23;20020;-85
2023/03/29 03:13:57;;;;;;;5.43;4.57;;;;;;;;;;6189486;23;20007;-85
2023/03/29 03:16:23;;;;;;;7.13;4.50;;;11.50;68.50;;;;;;6215233;23;20001;-84
2023/03/29 03:18:50;;;;;;;5.55;4.43;;;11.40;68.20;;;;;;6215383;23;20008;-85
2023/03/29 03:21:18;;;;;;;6.10;3.80;;;11.50;68.20;;;;;;6189236;23;20004;-85
2023/03/29 03:23:46;;;;;;;4.93;4.07;;;11.50;68.80;;;;;;6216656;23;20004;-85
2023/03/29 03:26:12;;;;;;;7.03;4.00;;;;;;;;;;6215595;23;20370;-85
2023/03/29 03:28:39;;;;;;;5.13;3.90;;;;;;;;;;6189170;23;20008;-85
2023/03/29 03:31:05;;;;;;;5.57;4.20;;;11.40;68.40;;;;;;6215794;23;19997;-84
2023/03/29 03:33:31;;;;;;;6.78;4.15;;;;;;;;;;6188911;23;20001;-84
2023/03/29 03:36:01;;;;;;;5.47;3.50;;;11.50;68.20;;;;;;6188356;23;20128;-84
2023/03/29 03:38:28;;;;;;;5.68;3.67;;;11.60;68.40;;;;;;6188746;23;20009;-83
2023/03/29 03:40:57;;;;;;;5.18;3.70;;;11.60;68.80;;;;;;6215468;23;20000;-84
2023/03/29 03:43:23;;;;;;;4.65;4.07;;;11.60;69.20;;;;;;6215264;23;20067;-84
2023/03/29 03:45:48;;;;;;;4.75;3.90;;;11.60;69.10;;;;;;6213782;23;20426;-85
2023/03/29 03:48:14;;;;;;;5.22;3.63;;;11.60;69.40;;;;;;6215288;23;20054;-85
2023/03/29 03:50:40;;;;;;;4.47;3.30;;;11.60;69.50;;;;;;6215482;23;20424;-84
2023/03/29 03:53:06;;;;;;;5.03;3.38;;;11.60;69.70;;;;;;6213257;23;20008;-84
2023/03/29 03:55:32;;;;;;;5.85;3.90;;;11.70;69.50;;;;;;6214395;23;20005;-82
2023/03/29 03:57:58;;;;;;;5.05;3.50;;;11.60;69.90;;;;;;6214648;23;20004;-83
2023/03/29 04:00:24;;;;;;;5.03;3.50;;;11.60;69.40;;;;;;6214943;23;20373;-82
2023/03/29 04:02:53;;;;;;;5.57;3.63;;;11.60;69.20;;;;;;6215868;23;20080;-82
2023/03/29 04:05:19;;;;;;;5.00;3.40;;;11.70;69.70;;;;;;6213404;23;20004;-83
2023/03/29 04:07:45;;;;;;;4.82;3.67;;;11.60;69.80;;;;;;6188211;23;20411;-82
2023/03/29 04:10:12;;;;;;;4.30;3.58;;;11.50;69.60;;;;;;6187750;23;20016;-83
2023/03/29 04:12:38;;;;;;;7.68;4.03;;;11.50;69.60;;;;;;6188360;23;20009;-83
2023/03/29 04:15:05;;;;;;;5.50;4.13;;;11.50;69.60;;;;;;6187665;23;20001;-83
2023/03/29 04:17:31;;;;;;;3.50;3.20;;;11.60;69.80;;;;;;6214726;23;20004;-82
2023/03/29 04:19:57;;;;;;;5.53;3.47;;;11.50;69.10;;;;;;6188009;23;20015;-83
2023/03/29 04:22:24;;;;;;;5.72;3.80;;;11.60;69.30;;;;;;6214974;23;20005;-82
2023/03/29 04:24:51;;;;;;;5.13;3.55;;;11.70;69.10;;;;;;6187780;23;20292;-83
2023/03/29 04:27:16;;;;;;;9.13;4.68;;;11.70;69.00;;;;;;6188017;23;20004;-84
2023/03/29 04:29:45;;;;;;;7.10;3.63;;;11.70;68.90;;;;;;6215634;23;20032;-84
2023/03/29 04:32:11;;;;;;;6.88;3.80;;;11.50;68.70;;;;;;6215370;23;20031;-83
2023/03/29 04:34:37;;;;;;;3.95;3.55;;;11.50;68.40;;;;;;6215341;23;19997;-83
2023/03/29 04:37:09;;;;;;;6.13;3.60;;;11.50;69.00;;;;;;6214825;23;20348;-84
2023/03/29 04:39:35;;;;;;;7.28;4.20;;;11.50;68.90;;;;;;6188993;23;20008;-83
2023/03/29 04:42:02;;;;;;;7.35;3.55;;;11.50;68.90;;;;;;6215126;23;20012;-83
2023/03/29 04:44:27;;;;;;;5.65;3.75;;;11.30;68.50;;;;;;6213445;23;20034;-83
2023/03/29 04:46:53;;;;;;;7.60;3.20;;;11.30;68.40;;;;;;6214717;23;20058;-83
2023/03/29 04:49:19;;;;;;;6.35;3.38;;;11.40;68.60;;;;;;6189409;23;20447;-84
2023/03/29 04:51:45;;;;;;;4.22;3.22;;;11.40;68.80;;;;;;6216289;23;20054;-84
2023/03/29 04:54:11;;;;;;;3.83;2.83;;;11.50;68.70;;;;;;6216748;23;20380;-85
2023/03/29 04:56:37;;;;;;;7.47;3.65;;;11.50;68.50;;;;;;6214959;23;20005;-84
2023/03/29 04:59:03;;;;;;;3.72;3.08;;;11.40;68.10;;;;;;6216695;23;20012;-84
2023/03/29 05:01:28;;;;;;;4.50;3.10;;;11.40;67.90;;;;;;6217798;23;20453;-83
2023/03/29 05:03:55;;;;;;;5.05;3.58;;;11.40;67.80;;;;;;6190894;23;20043;-81
2023/03/29 05:06:21;;;;;;;6.70;2.97;;;11.40;67.80;;;;;;6187694;23;20070;-82
2023/03/29 05:08:46;;;;;;;4.30;2.90;;;11.40;67.80;;;;;;6215805;23;20087;-81
2023/03/29 05:11:12;;;;;;;5.05;3.28;;;11.40;67.30;;;;;;6214540;23;20091;-82
2023/03/29 05:13:38;;;;;;;3.88;2.90;;;11.50;67.60;;;;;;6215410;23;20005;-82
2023/03/29 05:16:06;;;;;;;4.82;3.13;;;11.50;66.90;;;;;;6214379;23;20028;-82
2023/03/29 05:18:32;;;;;;;4.13;2.72;;;11.60;66.90;;;;;;6189907;23;20435;-81
2023/03/29 05:20:58;;;;;;;6.43;2.88;;;11.50;66.90;;;;;;6213417;23;20008;-82
2023/03/29 05:23:25;;;;;;;5.05;3.30;;;11.40;67.00;;;;;;6189329;23;20031;-82
2023/03/29 05:25:54;;;;;;;4.43;2.92;;;11.40;66.90;;;;;;6215870;23;20091;-82
2023/03/29 05:28:20;;;;;;;6.68;3.60;;;11.40;66.40;;;;;;6215756;23;20304;-82
2023/03/29 05:30:47;;;;;;;4.32;3.20;;;11.40;66.30;;;;;;6214592;23;20016;-82
2023/03/29 05:33:13;;;;;;;4.82;3.38;;;11.40;66.10;;;;;;6189253;23;20004;-83
2023/03/29 05:35:38;;;;;;;4.40;3.35;;;11.50;65.90;;;;;;6216389;23;20391;-83
2023/03/29 05:38:05;;;;;;;5.82;3.63;;;11.40;65.40;;;;;;6189655;23;20013;-83
2023/03/29 05:40:31;;;;;;;5.50;4.20;;;11.40;65.50;;;;;;6189332;23;20104;-83
2023/03/29 05:42:58;;;;;;;9.40;3.47;;;11.40;66.00;;;;;;6215319;23;20021;-85
2023/03/29 05:45:27;;;;;;;4.07;3.05;;;11.40;65.40;;;;;;6189555;23;20139;-82
2023/03/29 05:47:53;;;;;;;4.75;3.33;;;11.50;65.80;;;;;;6215477;23;20004;-80
2023/03/29 05:50:18;;;;;;;4.13;3.00;;;11.60;65.10;;;;;;6215074;23;20546;-80
2023/03/29 05:52:44;;;;;;;5.22;3.55;;;11.60;66.00;;;;;;6215804;23;20427;-80
2023/03/29 05:55:10;;;;;;;4.25;3.13;;;11.60;64.80;;;;;;6214846;23;20043;-81
2023/03/29 05:57:37;;;;;;;8.10;4.50;;;11.50;64.80;;;;;;6189402;23;20059;-84
2023/03/29 06:00:21;;;;;;;3.30;2.90;;;11.50;68.60;;;;;;6215938;23;20031;-81
2023/03/29 06:02:46;;;;;;;5.72;3.13;;;11.70;69.50;;;;;;6216208;23;20308;-80
2023/03/29 06:05:12;;;;;;;3.42;2.67;;;11.80;65.20;;;;;;6214538;23;20000;-80
2023/03/29 06:07:38;;;;;;;4.43;2.58;;;11.80;65.20;;;;;;6213593;23;20433;-79
2023/03/29 06:10:05;;;;;;;5.10;3.05;;;11.80;65.10;;;;;;6213618;23;20004;-79
2023/03/29 06:12:31;;;;;;;5.63;3.60;;;11.80;65.00;;;;;;6213234;23;20000;-78
2023/03/29 06:15:02;;;;;;;3.92;3.10;;;11.80;64.60;;;;;;6213793;23;20000;-79
2023/03/29 06:17:28;;;;;;;5.82;3.25;;;11.80;63.90;;;;;;6213732;23;20051;-79
2023/03/29 06:19:54;;;;;;;3.75;3.00;;;;;;;;;;6180788;23;20020;-80
2023/03/29 06:22:20;;;;;;;4.32;3.28;;;11.80;63.60;;;;;;6212470;23;20058;-80
2023/03/29 06:24:46;;;;;;;6.07;3.53;;;11.80;63.70;;;;;;6213184;23;20027;-80
2023/03/29 06:27:13;;;;;;;7.45;3.47;;;11.80;64.10;;;;;;6214807;23;20075;-80
2023/03/29 06:29:39;;;;;;;3.53;2.72;;;11.80;63.70;;;;;;6213570;23;20000;-80
2023/03/29 06:32:05;;;;;;;5.78;3.50;;;11.70;64.00;;;;;;6213138;23;20054;-80
2023/03/29 06:34:30;;;;;;;5.13;3.47;;;11.80;63.50;;;;;;6210275;23;19999;-82
2023/03/29 06:36:56;;;;;;;6.18;3.50;;;11.70;64.00;;;;;;6211932;23;19997;-80
2023/03/29 06:39:22;;;;;;;3.88;3.05;;;11.80;63.30;;;;;;6214484;23;20079;-85
2023/03/29 06:41:48;;;;;;;5.85;2.67;;;11.70;63.50;;;;;;6186905;23;20011;-83
2023/03/29 06:44:16;;;;;;;4.43;2.63;;;;;;;;;;6216443;22;20094;-86
2023/03/29 06:46:42;;;;;;;5.30;2.90;;;11.70;63.10;;;;;;6197620;23;20032;-87
2023/03/29 06:49:07;;;;;;;5.10;3.17;;;11.80;63.60;;;;;;6225117;23;20008;-86
2023/03/29 06:51:34;;;;;;;4.00;2.50;;;11.80;63.60;;;;;;6195722;23;20127;-87
2023/03/29 06:54:00;;;;;;;3.85;2.92;;;11.70;62.60;;;;;;6228345;23;20005;-84
2023/03/29 06:56:25;;;;;;;5.07;3.35;;;11.70;62.90;;;;;;6229498;23;20023;-87
2023/03/29 06:58:51;;;;;;;3.15;2.13;;;11.70;62.40;;;;;;6229117;23;20005;-87
2023/03/29 07:01:17;;;;;;;3.60;2.35;;;11.70;63.20;;;;;;6187911;23;20015;-87
2023/03/29 07:03:44;;;;;;;3.05;2.50;;;11.70;62.60;;;;;;6212978;23;20023;-85
2023/03/29 07:06:11;;;;;;;5.10;2.70;;;11.60;62.20;;;;;;6185842;23;20051;-85
2023/03/29 07:08:42;;;;;;;4.43;2.65;;;11.80;62.50;;;;;;6215152;23;20008;-85
2023/03/29 07:11:13;;;;;;;4.03;2.35;;;11.80;62.50;;;;;;6188963;23;20075;-85
2023/03/29 07:13:42;;;;;;;3.35;2.63;;;11.80;62.00;;;;;;6215581;23;20074;-87
2023/03/29 07:16:12;;;;;;;7.05;2.67;;;11.80;62.00;;;;;;6217139;23;20008;-88
2023/03/29 07:18:42;;;;;;;5.28;2.65;;;11.80;61.90;;;;;;6215653;23;20001;-87
2023/03/29 07:21:10;;;;;;;2.85;2.20;;;11.80;60.00;;;;;;6215140;23;20330;-86
2023/03/29 07:23:36;;;;;;;4.45;2.70;;;11.80;61.20;;;;;;6217076;23;20013;-84
2023/03/29 07:26:04;;;;;;;6.05;2.75;;;11.90;61.80;;;;;;6189994;23;20439;-85
2023/03/29 07:28:30;;;;;;;4.38;2.35;;;12.00;62.00;;;;;;6188144;23;20004;-84
2023/03/29 07:31:09;;;;;;;3.58;2.40;;;12.20;61.80;;;;;;6187793;23;20044;-84
2023/03/29 07:33:35;;;;;;;7.20;2.60;;;12.20;58.70;;;;;;6216378;23;20007;-84
2023/03/29 07:36:02;;;;;;;3.85;2.00;;;12.20;59.50;;;;;;6212822;23;20356;-84
2023/03/29 07:38:28;;;;;;;6.18;2.05;;;12.30;60.80;;;;;;6185026;23;20442;-84
2023/03/29 07:40:55;;;;;;;3.67;2.60;;;12.40;61.00;;;;;;6213125;23;20434;-84
2023/03/29 07:43:20;;;;;;;3.55;2.33;;;12.60;61.00;;;;;;6187510;23;20016;-84
2023/03/29 07:45:47;;;;;;;4.63;2.50;;;12.60;60.50;;;;;;6213960;23;20012;-84
2023/03/29 07:48:13;;;;;;;5.55;2.58;;;12.70;60.10;;;;;;6213428;23;20000;-85
2023/03/29 07:50:39;;;;;;;4.85;2.53;;;12.80;60.40;;;;;;6186671;23;20050;-84
2023/03/29 07:53:05;;;;;;;5.13;2.65;;;13.00;59.70;;;;;;6213588;23;20005;-84
2023/03/29 07:55:30;;;;;;;4.45;2.67;;;13.10;57.30;;;;;;6214491;23;20008;-84
2023/03/29 07:57:56;;;;;;;5.18;2.00;;;13.10;57.70;;;;;;6213872;23;20005;-84
2023/03/29 08:00:23;;;;;;;4.93;3.00;;;13.20;57.80;;;;;;6214067;23;20368;-84
2023/03/29 08:02:51;;;;;;;5.68;2.30;;;13.20;56.00;;;;;;6214055;23;20486;-85
2023/03/29 08:05:19;;;;;;;3.88;2.35;;;13.40;57.30;;;;;;6214035;23;20076;-84
2023/03/29 08:07:45;;;;;;;4.55;2.70;;;13.40;56.50;;;;;;6186962;23;20078;-83
2023/03/29 08:10:16;;;;;;;3.65;2.30;;;13.40;56.20;;;;;;6213438;23;19996;-84
2023/03/29 08:12:42;;;;;;;6.22;2.53;;;13.60;56.40;;;;;;6213337;23;20059;-84
2023/03/29 08:15:09;;;;;;;5.13;2.50;;;13.80;56.50;;;;;;6213545;23;19996;-85
2023/03/29 08:17:36;;;;;;;3.13;1.73;;;13.80;57.00;;;;;;6213129;23;20308;-83
2023/03/29 08:20:04;;;;;;;3.95;2.45;;;14.00;56.00;;;;;;6213418;23;20059;-84
2023/03/29 08:22:32;;;;;;;3.15;2.10;;;14.00;56.60;;;;;;6215486;23;20079;-84
2023/03/29 08:24:57;;;;;;;2.88;1.65;;;14.10;56.60;;;;;;6215636;23;20008;-84
2023/03/29 08:27:23;;;;;;;2.38;1.77;;;14.20;57.10;;;;;;6216534;23;20008;-84
2023/03/29 08:29:49;;;;;;;3.42;2.28;;;14.30;57.20;;;;;;6215469;23;20397;-84
2023/03/29 08:32:16;;;;;;;3.80;1.90;;;14.40;56.50;;;;;;6189019;23;20012;-85
2023/03/29 08:34:42;;;;;;;2.70;2.00;;;;;;;;;;6195000;23;20008;-85
2023/03/29 08:37:08;;;;;;;4.88;2.38;;;14.70;56.60;;;;;;6222919;23;20054;-84
2023/03/29 08:39:34;;;;;;;1.95;1.70;;;14.70;56.20;;;;;;6222635;23;20322;-85
2023/03/29 08:42:03;;;;;;;2.00;1.80;;;14.80;56.30;;;;;;6222895;23;20031;-85
2023/03/29 08:44:47;;;;;;;2.88;2.00;;;14.90;56.90;;;;;;6223285;23;20013;-84
2023/03/29 08:47:37;;;;;;;2.30;1.70;;;15.00;56.70;;;;;;6222336;23;20060;-84
2023/03/29 08:50:03;;;;;;;2.35;1.50;;;15.10;57.30;;;;;;6191111;23;20001;-80
2023/03/29 08:52:40;;;;;;;4.00;1.70;;;15.10;57.30;;;;;;6190103;23;20007;-81
2023/03/29 08:55:30;;;;;;;2.25;1.80;;;15.30;57.60;;;;;;6214543;23;20000;-81
2023/03/29 08:57:56;;;;;;;;;;;15.50;56.90;;;;;;6195529;23;20119;-84
2023/03/29 09:00:35;;;;;;;3.05;1.73;;;15.60;57.20;;;;;;6216309;23;19965;-86
2023/03/29 09:03:08;;;;;;;5.35;1.45;;;15.60;57.70;;;;;;6216001;23;20051;-85
2023/03/29 09:05:41;;;;;;;1.73;1.30;;;15.90;57.80;;;;;;6189171;23;20035;-86
2023/03/29 09:08:18;;;;;;;3.33;1.85;;;16.10;58.40;;;;;;6189338;23;20016;-85
2023/03/29 09:11:16;;;;;;;2.03;1.27;;;16.20;57.70;;;;;;6216380;23;20043;-86
2023/03/29 09:13:58;;;;;;;1.42;1.20;;;16.40;57.80;;;;;;6156357;23;20059;-86
2023/03/29 09:16:39;;;;;;;2.08;1.00;;;16.80;58.00;;;;;;6189306;23;20398;-86
2023/03/29 09:19:30;;;;;;;1.33;1.20;;;16.80;58.00;;;;;;6189392;23;20083;-87
2023/03/29 09:22:05;;;;;;;4.18;1.70;;;17.20;57.80;;;;;;6217056;23;20032;-84
2023/03/29 09:24:56;;;;;;;2.58;1.42;;;17.20;58.20;;;;;;6189699;23;20015;-85
2023/03/29 09:27:33;;;;;;;2.53;1.38;;;17.20;57.70;;;;;;6217272;23;20032;-86
2023/03/29 09:30:24;;;;;;;2.53;1.48;;;17.20;58.30;;;;;;6218744;23;20318;-88
2023/03/29 09:32:56;;;;;;;2.92;1.30;;;17.30;58.40;;;;;;6217319;23;20058;-86
2023/03/29 09:35:45;;;;;;;2.38;1.17;;;17.50;58.00;;;;;;6216764;23;20419;-85
2023/03/29 09:38:13;;;;;;;2.05;1.10;;;17.70;57.00;;;;;;6197493;23;20450;-86
2023/03/29 09:40:48;;;;;;;1.98;1.02;;;17.70;57.60;;;;;;6215941;23;20008;-86
2023/03/29 09:43:17;;;;;;;1.98;1.10;;;17.80;57.70;;;;;;6216403;23;20016;-87
2023/03/29 09:45:50;;;;;;;3.20;1.20;;;18.00;57.70;;;;;;6216211;23;20005;-86
2023/03/29 09:48:18;;;;;;;3.15;1.23;;;18.30;56.20;;;;;;6217185;23;20427;-86
2023/03/29 09:50:50;;;;;;;4.68;1.50;;;18.40;55.50;;;;;;6190183;23;20076;-86
2023/03/29 09:53:17;;;;;;;2.00;1.30;;;18.30;55.00;;;;;;6216838;23;20004;-85
2023/03/29 09:55:45;;;;;;;1.88;1.20;;;18.30;56.10;;;;;;6216550;23;20011;-85
2023/03/29 09:58:15;;;;;;;2.00;1.33;;;18.50;55.70;;;;;;6190752;23;20004;-86
2023/03/29 10:00:41;;;;;;;2.03;1.15;;;18.50;55.60;;;;;;6216894;23;20020;-86
2023/03/29 10:03:07;;;;;;;1.52;1.00;;;18.70;55.80;;;;;;6190041;23;20084;-85
2023/03/29 10:05:39;;;;;;;4.28;1.13;;;18.90;55.70;;;;;;6216970;23;20001;-86
2023/03/29 10:08:39;;;;;;;2.40;1.25;;;19.20;55.30;;;;;;6217375;23;20004;-86
2023/03/29 10:11:33;;;;;;;1.75;1.02;;;19.40;53.60;;;;;;6136467;23;20080;-85
2023/03/29 10:14:03;;;;;;;1.63;0.95;;;19.50;53.30;;;;;;6216538;23;19996;-87
2023/03/29 10:16:35;;;;;;;1.20;0.88;;;19.70;52.70;;;;;;6214389;23;20000;-84
2023/03/29 10:19:33;;;;;;;2.08;1.00;;;19.90;51.30;;;;;;6187715;23;20004;-86
2023/03/29 10:22:03;;;;;;;3.22;1.27;;;19.90;50.40;;;;;;6214326;23;20005;-81
2023/03/29 10:24:29;;;;;;;4.55;1.13;;;20.00;50.50;;;;;;6214499;23;20009;-85
2023/03/29 10:27:02;;;;;;;2.35;1.27;;;20.10;51.30;;;;;;6214628;23;20005;-85
2023/03/29 10:29:41;;;;;;;2.72;1.75;;;20.30;52.20;;;;;;6188315;23;20001;-85
2023/03/29 10:32:16;;;;;;;2.60;1.20;;;20.50;52.00;;;;;;6187413;23;20009;-83
2023/03/29 10:34:44;;;;;;;2.22;1.40;;;20.60;50.00;;;;;;6188180;23;20337;-84
2023/03/29 10:37:12;;;;;;;4.32;1.63;;;20.60;51.00;;;;;;6214183;23;20004;-84
2023/03/29 10:39:39;;;;;;;2.70;1.65;;;20.60;49.10;;;;;;6214334;23;20109;-84
2023/03/29 10:42:07;;;;;;;6.25;2.10;;;20.60;46.00;;;;;;6186958;23;20005;-85
2023/03/29 10:44:35;;;;;;;2.47;1.52;;;20.60;47.80;;;;;;6187026;23;20324;-85
2023/03/29 10:47:08;;;;;;;2.88;1.63;;;20.50;49.30;;;;;;6187916;23;20430;-84
2023/03/29 10:49:41;;;;;;;8.57;1.55;;;20.70;46.50;;;;;;6188149;23;20087;-82
2023/03/29 10:52:08;;;;;;;2.28;1.63;;;20.70;48.40;;;;;;6188976;23;20005;-81
2023/03/29 10:54:35;;;;;;;2.55;1.70;;;20.70;46.40;;;;;;6215329;23;20001;-82
2023/03/29 10:57:08;;;;;;;2.38;1.35;;;20.50;46.10;;;;;;6188625;23;20430;-82
2023/03/29 11:00:00;;;;;;;2.05;1.58;;;20.60;44.90;;;;;;6188327;23;20012;-82
2023/03/29 11:03:01;;;;;;;2.20;1.50;;;20.40;44.20;;;;;;6188343;23;20430;-82
2023/03/29 11:05:30;;;;;;;2.65;1.50;;;20.40;46.70;;;;;;6214317;23;20000;-82
2023/03/29 11:08:06;;;;;;;2.90;1.67;;;20.60;46.70;;;;;;6187162;23;20005;-82
2023/03/29 11:11:16;;;;;;;2.35;1.42;;;20.70;46.80;;;;;;6185451;23;20000;-82
2023/03/29 11:13:59;;;;;;;4.57;1.75;;;20.80;44.20;;;;;;6155838;23;20005;-83
2023/03/29 11:16:33;;;;;;;1.83;1.30;;;20.80;46.20;;;;;;6215805;23;20007;-82
2023/03/29 11:19:36;;;;;;;2.80;1.30;;;21.00;46.50;;;;;;6216012;23;20039;-83
2023/03/29 11:22:11;;;;;;;2.25;1.38;;;21.30;46.70;;;;;;6216097;23;20005;-83
2023/03/29 11:24:57;;;;;;;4.13;2.30;;;21.80;42.40;;;;;;6215917;23;20005;-84
2023/03/29 11:27:47;;;;;;;3.30;1.85;;;21.80;43.90;;;;;;6217642;23;20062;-87
2023/03/29 11:30:24;;;;;;;2.05;1.85;;;21.90;44.20;;;;;;6217897;23;20005;-87
2023/03/29 11:33:01;;;;;;;1.67;1.58;;;21.90;41.90;;;;;;6217419;23;20035;-86
2023/03/29 11:35:46;;;;;;;2.80;2.35;;;22.10;42.90;;;;;;6215914;23;20004;-86
2023/03/29 11:38:33;;;;;;;2.22;1.70;;;22.10;41.70;;;;;;6215804;23;20001;-86
2023/03/29 11:41:39;;;;;;;3.03;2.10;;;22.80;42.80;;;;;;6215801;23;20003;-86
2023/03/29 11:44:16;;;;;;;3.17;2.60;;;24.00;41.30;;;;;;6065149;23;20406;-86
2023/03/29 11:46:52;;;;;;;3.63;2.67;;;25.50;37.10;;;;;;6195038;23;20015;-85
2023/03/29 11:49:41;;;;;;;3.15;2.15;;;26.60;36.60;;;;;;6215351;23;20079;-85
2023/03/29 11:52:23;;;;;;;3.63;2.70;;;27.70;36.20;;;;;;6214915;23;20001;-82
2023/03/29 11:54:48;;;;;;;6.45;2.88;;;28.70;34.40;;;;;;6214986;23;20059;-83
2023/03/29 11:57:21;;;;;;;3.28;2.03;;;29.30;33.20;;;;;;6187932;23;20033;-82
2023/03/29 11:59:57;;;;;;;2.50;2.08;;;29.50;32.90;;;;;;6215971;23;19997;-81
2023/03/29 12:02:30;;;;;;;3.28;2.30;;;30.30;31.70;;;;;;6215630;23;19997;-82
2023/03/29 12:05:00;;;;;;;3.13;1.83;;;30.30;32.10;;;;;;6214761;23;20071;-82
2023/03/29 12:07:40;;;;;;;3.15;2.28;;;30.40;30.40;;;;;;6214302;23;20005;-87
2023/03/29 12:10:22;;;;;;;2.78;2.20;;;30.40;30.00;;;;;;6214936;23;20055;-81
2023/03/29 12:12:55;;;;;;;2.97;2.33;;;30.40;30.00;;;;;;6214047;23;20001;-82
2023/03/29 12:15:23;;;;;;;4.00;2.80;;;30.40;29.60;;;;;;6214362;23;20024;-80
2023/03/29 12:18:24;;;;;;;2.65;2.40;;;29.40;29.50;;;;;;6212966;23;20004;-83
2023/03/29 12:20:57;;;;;;;4.50;2.60;;;29.40;29.70;;;;;;6213420;23;20008;-82
2023/03/29 12:23:23;;;;;;;4.13;2.58;;;27.90;30.30;;;;;;6217546;23;20012;-88
2023/03/29 12:26:01;;;;;;;2.53;2.03;;;27.70;30.90;;;;;;6217531;23;20465;-87
2023/03/29 12:28:45;;;;;;;3.72;2.60;;;26.40;31.40;;;;;;6219022;23;20059;-87
2023/03/29 12:31:23;;;;;;;3.63;2.50;;;26.20;32.20;;;;;;6217541;23;20000;-87
2023/03/29 12:34:04;;;;;;;3.72;2.85;;;25.50;32.40;;;;;;6218086;23;20001;-86
2023/03/29 12:36:52;;;;;;;5.50;3.03;;;24.90;33.30;;;;;;6219607;23;20004;-88
2023/03/29 12:39:20;;;;;;;5.40;2.75;;;24.90;34.20;;;;;;6219839;23;20015;-87
2023/03/29 12:41:52;;;;;;;4.18;2.72;;;25.40;34.90;;;;;;6193115;23;20087;-88
2023/03/29 12:44:22;;;;;;;4.32;2.75;;;26.00;35.20;;;;;;6221770;23;20021;-87
2023/03/29 12:46:57;;;;;;;;;;;26.80;33.90;;;;;;6221245;23;20005;-87
2023/03/29 12:49:27;;;;;;;6.80;3.00;;;27.10;32.60;;;;;;6218865;23;19910;-87
2023/03/29 12:51:56;;;;;;;2.85;2.53;;;27.40;33.10;;;;;;6218628;23;20489;-89
2023/03/29 12:54:26;;;;;;;6.57;3.00;;;27.80;32.60;;;;;;6216374;23;20426;-88
2023/03/29 12:56:59;;;;;;;4.18;3.13;;;28.30;32.60;;;;;;6214748;23;20023;-87
2023/03/29 12:59:46;;;;;;;4.15;3.00;;;28.60;31.80;;;;;;6188081;23;20032;-88
2023/03/29 13:02:12;;;;;;;4.35;3.40;;;28.70;31.70;;;;;;6190037;23;20012;-89
2023/03/29 13:04:55;;;;;;;5.28;3.53;;;28.80;31.20;;;;;;6214245;23;20005;-89
2023/03/29 13:07:26;;;;;;;8.80;3.00;;;29.00;30.90;;;;;;6215055;23;20066;-88
2023/03/29 13:09:57;;;;;;;4.68;3.17;;;28.70;30.80;;;;;;6205314;23;20011;-87
2023/03/29 13:12:25;;;;;;;4.82;3.80;;;;;;;;;;6216703;23;20028;-86
2023/03/29 13:15:01;;;;;;;6.60;4.85;;;27.80;30.20;;;;;;6217958;23;20008;-86
2023/03/29 13:18:00;;;;;;;7.03;3.95;;;26.90;30.90;;;;;;6215845;23;20059;-82